createdAt,value
2022-11-05T00:01:57.409Z,8.90
2022-11-05T00:04:47.329Z,8.90
2022-11-05T00:08:00.577Z,8.90
2022-11-05T00:10:38.947Z,8.90
2022-11-05T00:13:30.828Z,8.90
2022-11-05T00:16:20.433Z,9.00
2022-11-05T00:19:09.326Z,8.90
2022-11-05T00:21:58.282Z,9.00
2022-11-05T00:24:47.565Z,9.00
2022-11-05T00:27:19.992Z,9.00
2022-11-05T00:32:35.265Z,9.30
2022-11-05T00:35:07.272Z,9.50
2022-11-05T00:37:39.190Z,9.40
2022-11-05T00:40:09.032Z,9.40
2022-11-05T00:43:01.336Z,9.30
2022-11-05T00:45:32.513Z,9.20
2022-11-05T00:48:20.451Z,9.20
2022-11-05T00:50:51.690Z,9.10
2022-11-05T00:53:21.298Z,9.10
2022-11-05T00:55:52.922Z,9.10
2022-11-05T01:01:15.177Z,9.10
2022-11-05T01:03:48.830Z,9.10
2022-11-05T01:06:22.072Z,9.10
2022-11-05T01:08:52.420Z,9.10
2022-11-05T01:11:39.674Z,9.10
2022-11-05T01:14:14.069Z,9.10
2022-11-05T01:16:50.914Z,9.10
2022-11-05T01:19:18.796Z,9.10
2022-11-05T01:24:32.642Z,9.00
2022-11-05T01:29:53.577Z,9.00
2022-11-05T01:35:21.795Z,9.10
2022-11-05T01:37:52.630Z,9.10
2022-11-05T01:40:32.359Z,9.00
2022-11-05T01:43:00.324Z,9.00
2022-11-05T01:45:28.975Z,9.00
2022-11-05T01:48:19.178Z,9.00
2022-11-05T01:51:08.450Z,8.90
2022-11-05T01:54:02.893Z,9.00
2022-11-05T01:56:43.467Z,9.00
2022-11-05T01:59:32.348Z,8.90
2022-11-05T02:02:04.995Z,8.90
2022-11-05T02:04:45.520Z,8.90
2022-11-05T02:07:14.815Z,8.80
2022-11-05T02:10:09.873Z,8.80
2022-11-05T02:12:41.483Z,8.80
2022-11-05T02:15:18.284Z,8.80
2022-11-05T02:17:57.797Z,8.80
2022-11-05T02:20:52.288Z,8.70
2022-11-05T02:23:50.200Z,8.70
2022-11-05T02:26:57.494Z,8.70
2022-11-05T02:29:58.178Z,8.70
2022-11-05T02:33:07.125Z,8.70
2022-11-05T02:39:15.413Z,8.60
2022-11-05T02:42:15.686Z,8.60
2022-11-05T02:45:02.460Z,8.50
2022-11-05T02:47:55.176Z,8.50
2022-11-05T02:51:03.773Z,8.40
2022-11-05T02:53:52.442Z,8.40
2022-11-05T02:56:39.898Z,8.40
2022-11-05T02:59:09.513Z,8.40
2022-11-05T03:01:40.915Z,8.40
2022-11-05T03:04:15.904Z,8.40
2022-11-05T03:07:24.047Z,8.30
2022-11-05T03:10:13.206Z,8.40
2022-11-05T03:13:16.429Z,8.30
2022-11-05T03:16:00.503Z,8.40
2022-11-05T03:18:48.683Z,8.40
2022-11-05T03:21:27.890Z,8.40
2022-11-05T03:24:36.505Z,8.50
2022-11-05T03:27:16.367Z,8.50
2022-11-05T03:29:53.018Z,8.50
2022-11-05T03:32:23.123Z,8.50
2022-11-05T03:34:59.019Z,8.50
2022-11-05T03:37:35.377Z,8.50
2022-11-05T03:40:07.554Z,8.50
2022-11-05T03:42:44.284Z,8.60
2022-11-05T03:45:36.208Z,8.60
2022-11-05T03:48:13.478Z,8.60
2022-11-05T03:51:04.349Z,8.60
2022-11-05T03:53:39.136Z,8.60
2022-11-05T03:56:54.450Z,8.60
2022-11-05T04:02:06.609Z,8.70
2022-11-05T04:04:37.443Z,8.70
2022-11-05T04:07:25.233Z,8.70
2022-11-05T04:10:15.772Z,8.70
2022-11-05T04:13:03.307Z,8.70
2022-11-05T04:15:57.491Z,8.70
2022-11-05T04:18:35.617Z,8.70
2022-11-05T04:21:27.582Z,8.70
2022-11-05T04:24:12.320Z,8.70
2022-11-05T04:26:44.150Z,8.70
2022-11-05T04:29:33.268Z,8.70
2022-11-05T04:32:05.106Z,8.70
2022-11-05T04:34:41.705Z,8.70
2022-11-05T04:37:12.211Z,8.70
2022-11-05T04:42:25.938Z,8.70
2022-11-05T04:44:55.937Z,8.70
2022-11-05T04:50:12.091Z,8.70
2022-11-05T04:52:44.103Z,8.70
2022-11-05T04:55:11.681Z,8.70
2022-11-05T04:57:39.014Z,8.70
2022-11-05T05:00:18.730Z,8.70
2022-11-05T05:02:48.798Z,8.70
2022-11-05T05:05:19.381Z,8.70
2022-11-05T05:10:33.636Z,8.60
2022-11-05T05:13:12.322Z,8.60
2022-11-05T05:15:40.721Z,8.60
2022-11-05T05:18:19.378Z,8.70
2022-11-05T05:21:08.131Z,8.60
2022-11-05T05:26:22.546Z,8.60
2022-11-05T05:28:59.091Z,8.60
2022-11-05T05:31:26.850Z,8.60
2022-11-05T05:33:57.367Z,8.60
2022-11-05T05:39:11.461Z,8.60
2022-11-05T05:41:39.910Z,8.60
2022-11-05T05:44:07.044Z,8.60
2022-11-05T05:49:22.964Z,8.60
2022-11-05T05:51:53.318Z,8.60
2022-11-05T05:54:29.140Z,8.60
2022-11-05T05:57:02.627Z,8.60
2022-11-05T05:59:30.078Z,8.60
2022-11-05T06:02:00.783Z,8.60
2022-11-05T06:04:28.793Z,8.70
2022-11-05T06:06:58.965Z,8.60
2022-11-05T06:09:26.998Z,8.60
2022-11-05T06:11:54.751Z,8.70
2022-11-05T06:14:25.011Z,8.70
2022-11-05T06:16:55.104Z,8.70
2022-11-05T06:19:28.340Z,8.70
2022-11-05T06:21:59.100Z,8.70
2022-11-05T06:24:29.180Z,8.70
2022-11-05T06:26:59.778Z,8.70
2022-11-05T06:29:26.804Z,8.80
2022-11-05T06:31:58.833Z,8.70
2022-11-05T06:34:27.468Z,8.80
2022-11-05T06:36:58.293Z,8.80
2022-11-05T06:42:19.256Z,8.80
2022-11-05T06:44:46.916Z,8.90
2022-11-05T06:49:59.087Z,8.90
2022-11-05T06:52:31.202Z,9.00
2022-11-05T06:55:01.468Z,8.90
2022-11-05T06:57:31.668Z,9.00
2022-11-05T07:00:07.315Z,9.00
2022-11-05T07:02:37.665Z,9.00
2022-11-05T07:05:15.136Z,9.00
2022-11-05T07:07:46.055Z,9.00
2022-11-05T07:10:17.240Z,9.00
2022-11-05T07:15:32.558Z,9.00
2022-11-05T07:18:06.968Z,9.10
2022-11-05T07:23:21.595Z,9.10
2022-11-05T07:28:34.339Z,9.20
2022-11-05T07:31:03.019Z,9.20
2022-11-05T07:39:00.571Z,9.40
2022-11-05T07:41:34.570Z,9.40
2022-11-05T07:44:08.285Z,9.50
2022-11-05T07:46:38.380Z,9.50
2022-11-05T07:51:52.843Z,9.60
2022-11-05T07:54:23.637Z,9.70
2022-11-05T07:59:38.092Z,9.80
2022-11-05T08:02:08.844Z,9.90
2022-11-05T08:04:41.051Z,9.90
2022-11-05T08:07:11.617Z,10.10
2022-11-05T08:09:41.439Z,10.30
2022-11-05T08:12:18.844Z,10.40
2022-11-05T08:14:49.340Z,10.50
2022-11-05T08:17:27.416Z,10.70
2022-11-05T08:22:46.320Z,10.80
2022-11-05T08:25:16.167Z,10.90
2022-11-05T08:27:53.212Z,10.90
2022-11-05T08:30:27.096Z,10.90
2022-11-05T08:35:45.799Z,10.90
2022-11-05T08:38:16.967Z,10.90
2022-11-05T08:40:55.570Z,11.00
2022-11-05T08:43:26.470Z,11.00
2022-11-05T08:45:57.848Z,11.00
2022-11-05T08:48:29.676Z,11.10
2022-11-05T08:51:02.255Z,11.00
2022-11-05T08:53:31.915Z,11.10
2022-11-05T08:56:01.252Z,11.10
2022-11-05T08:58:31.566Z,11.10
2022-11-05T09:01:04.979Z,11.00
2022-11-05T09:03:43.266Z,11.10
2022-11-05T09:06:14.802Z,11.20
2022-11-05T09:08:44.298Z,11.30
2022-11-05T09:11:15.092Z,11.40
2022-11-05T09:13:47.442Z,11.30
2022-11-05T09:16:24.721Z,11.30
2022-11-05T09:18:55.138Z,11.50
2022-11-05T09:21:26.474Z,11.60
2022-11-05T09:23:56.168Z,11.70
2022-11-05T09:26:24.972Z,11.80
2022-11-05T09:28:56.138Z,11.70
2022-11-05T09:31:25.056Z,11.40
2022-11-05T09:33:55.213Z,11.40
2022-11-05T09:41:50.074Z,11.60
2022-11-05T09:44:25.919Z,11.60
2022-11-05T09:46:58.139Z,11.60
2022-11-05T09:49:53.833Z,11.80
2022-11-05T09:52:33.225Z,11.90
2022-11-05T09:55:07.624Z,11.90
2022-11-05T09:57:49.048Z,12.00
2022-11-05T10:00:17.578Z,11.90
2022-11-05T10:03:07.164Z,11.90
2022-11-05T10:05:54.624Z,12.00
2022-11-05T10:08:27.901Z,12.10
2022-11-05T10:11:03.651Z,12.20
2022-11-05T10:14:14.136Z,12.20
2022-11-05T10:16:47.946Z,12.20
2022-11-05T10:19:25.193Z,12.10
2022-11-05T10:22:08.576Z,11.90
2022-11-05T10:24:37.469Z,12.10
2022-11-05T10:27:06.643Z,12.30
2022-11-05T10:29:38.159Z,12.40
2022-11-05T10:32:07.595Z,12.50
2022-11-05T10:34:38.684Z,12.30
2022-11-05T10:37:09.403Z,12.20
2022-11-05T10:39:37.864Z,12.20
2022-11-05T10:42:51.283Z,12.20
2022-11-05T10:45:40.657Z,12.20
2022-11-05T10:48:22.559Z,12.30
2022-11-05T10:50:52.284Z,12.20
2022-11-05T10:53:26.023Z,12.10
2022-11-05T10:55:55.952Z,12.00
2022-11-05T10:58:31.400Z,12.00
2022-11-05T11:00:58.807Z,11.90
2022-11-05T11:03:51.604Z,12.10
2022-11-05T11:06:32.655Z,12.00
2022-11-05T11:09:08.005Z,12.10
2022-11-05T11:11:42.785Z,12.10
2022-11-05T11:14:20.932Z,11.90
2022-11-05T11:16:51.361Z,11.80
2022-11-05T11:19:22.385Z,11.70
2022-11-05T11:22:11.475Z,11.70
2022-11-05T11:24:50.056Z,11.50
2022-11-05T11:27:27.916Z,11.50
2022-11-05T11:30:05.981Z,11.30
2022-11-05T11:32:37.688Z,11.30
2022-11-05T11:35:11.111Z,11.30
2022-11-05T11:37:42.186Z,11.30
2022-11-05T11:40:23.988Z,11.20
2022-11-05T11:42:59.543Z,11.20
2022-11-05T11:45:50.959Z,11.10
2022-11-05T11:48:23.572Z,11.00
2022-11-05T11:50:54.182Z,10.90
2022-11-05T11:53:37.127Z,10.90
2022-11-05T11:56:21.134Z,10.90
2022-11-05T11:58:55.290Z,11.00
2022-11-05T12:02:10.629Z,11.00
2022-11-05T12:05:10.774Z,11.00
2022-11-05T12:08:00.923Z,11.00
2022-11-05T12:11:10.416Z,11.10
2022-11-05T12:14:16.002Z,11.10
2022-11-05T12:17:11.469Z,11.00
2022-11-05T12:20:13.687Z,11.00
2022-11-05T12:23:05.099Z,11.00
2022-11-05T12:25:54.412Z,11.10
2022-11-05T12:29:04.557Z,11.20
2022-11-05T12:32:22.411Z,11.20
2022-11-05T12:35:46.751Z,11.20
2022-11-05T12:38:32.265Z,11.20
2022-11-05T12:41:33.023Z,11.20
2022-11-05T12:44:24.361Z,11.20
2022-11-05T12:47:17.014Z,11.20
2022-11-05T12:50:25.612Z,11.20
2022-11-05T12:53:23.646Z,11.30
2022-11-05T12:56:00.256Z,11.30
2022-11-05T12:58:39.593Z,11.40
2022-11-05T13:01:37.204Z,11.40
2022-11-05T13:04:30.045Z,11.40
2022-11-05T13:07:15.300Z,11.40
2022-11-05T13:10:20.216Z,11.50
2022-11-05T13:13:11.129Z,11.50
2022-11-05T13:16:20.864Z,11.60
2022-11-05T13:19:17.920Z,11.50
2022-11-05T13:21:56.449Z,11.50
2022-11-05T13:24:39.610Z,11.40
2022-11-05T13:27:18.754Z,11.40
2022-11-05T13:30:22.665Z,11.40
2022-11-05T13:33:12.156Z,11.40
2022-11-05T13:36:30.623Z,11.40
2022-11-05T13:39:30.683Z,11.40
2022-11-05T13:42:40.356Z,11.40
2022-11-05T13:45:47.852Z,11.40
2022-11-05T13:48:53.636Z,11.50
2022-11-05T13:51:55.068Z,11.60
2022-11-05T13:54:43.538Z,11.50
2022-11-05T13:57:52.455Z,11.50
2022-11-05T14:00:26.770Z,11.50
2022-11-05T14:03:19.056Z,11.50
2022-11-05T14:05:58.720Z,11.40
2022-11-05T14:08:28.832Z,11.40
2022-11-05T14:11:40.369Z,11.40
2022-11-05T14:14:20.924Z,11.40
2022-11-05T14:20:24.415Z,11.30
2022-11-05T14:22:53.717Z,11.30
2022-11-05T14:25:27.286Z,11.30
2022-11-05T14:27:58.455Z,11.30
2022-11-05T14:30:56.866Z,11.20
2022-11-05T14:33:36.518Z,11.20
2022-11-05T14:36:21.621Z,11.20
2022-11-05T14:39:04.272Z,11.20
2022-11-05T14:41:56.756Z,11.00
2022-11-05T14:44:38.400Z,11.00
2022-11-05T14:47:19.772Z,11.10
2022-11-05T14:53:40.897Z,11.10
2022-11-05T14:56:20.049Z,11.10
2022-11-05T14:58:49.694Z,11.10
2022-11-05T15:01:37.874Z,11.00
2022-11-05T15:04:43.353Z,11.10
2022-11-05T15:07:25.960Z,11.00
2022-11-05T15:10:10.060Z,11.10
2022-11-05T15:13:04.374Z,11.10
2022-11-05T15:15:48.151Z,11.00
2022-11-05T15:18:42.447Z,11.10
2022-11-05T15:21:25.074Z,11.10
2022-11-05T15:23:59.089Z,11.10
2022-11-05T15:27:13.705Z,11.00
2022-11-05T15:29:43.337Z,11.00
2022-11-05T15:32:38.318Z,11.00
2022-11-05T15:35:30.730Z,11.00
2022-11-05T15:38:02.837Z,11.00
2022-11-05T15:40:35.144Z,11.10
2022-11-05T15:43:24.747Z,11.00
2022-11-05T15:46:33.989Z,11.00
2022-11-05T15:49:16.257Z,11.00
2022-11-05T15:51:44.643Z,11.00
2022-11-05T15:54:30.354Z,11.00
2022-11-05T15:57:02.757Z,10.90
2022-11-05T15:59:33.611Z,10.90
2022-11-05T16:02:35.772Z,10.80
2022-11-05T16:05:14.766Z,10.80
2022-11-05T16:07:47.920Z,10.80
2022-11-05T16:10:30.376Z,10.70
2022-11-05T16:13:36.948Z,10.70
2022-11-05T16:16:44.418Z,10.60
2022-11-05T16:19:41.307Z,10.60
2022-11-05T16:22:12.019Z,10.50
2022-11-05T16:24:43.808Z,10.50
2022-11-05T16:27:23.954Z,10.50
2022-11-05T16:32:43.385Z,10.30
2022-11-05T16:35:40.980Z,10.30
2022-11-05T16:38:17.105Z,10.30
2022-11-05T16:40:47.058Z,10.30
2022-11-05T16:43:27.556Z,10.20
2022-11-05T16:48:42.908Z,10.20
2022-11-05T16:51:18.700Z,10.20
2022-11-05T16:53:51.822Z,10.20
2022-11-05T16:56:33.626Z,10.20
2022-11-05T16:59:08.223Z,10.30
2022-11-05T17:01:56.011Z,10.30
2022-11-05T17:04:28.226Z,10.30
2022-11-05T17:09:49.187Z,10.30
2022-11-05T17:12:19.592Z,10.30
2022-11-05T17:14:50.495Z,10.30
2022-11-05T17:17:31.146Z,10.30
2022-11-05T17:22:55.595Z,10.30
2022-11-05T17:25:28.547Z,10.30
2022-11-05T17:28:07.842Z,10.30
2022-11-05T17:30:54.596Z,10.30
2022-11-05T17:33:30.874Z,10.30
2022-11-05T17:36:01.582Z,10.30
2022-11-05T17:38:32.569Z,10.30
2022-11-05T17:41:11.564Z,10.30
2022-11-05T17:43:40.560Z,10.30
2022-11-05T17:46:18.642Z,10.30
2022-11-05T17:48:49.512Z,10.20
2022-11-05T17:51:20.098Z,10.20
2022-11-05T17:56:44.267Z,10.20
2022-11-05T17:59:12.505Z,10.20
2022-11-05T18:01:47.545Z,10.20
2022-11-05T18:04:19.312Z,10.10
2022-11-05T18:06:57.404Z,10.10
2022-11-05T18:09:27.822Z,10.10
2022-11-05T18:12:05.742Z,10.10
2022-11-05T18:14:38.523Z,10.10
2022-11-05T18:17:32.628Z,10.10
2022-11-05T18:22:45.106Z,10.10
2022-11-05T18:25:22.283Z,10.20
2022-11-05T18:27:54.627Z,10.20
2022-11-05T18:30:25.509Z,10.20
2022-11-05T18:32:55.264Z,10.20
2022-11-05T18:35:38.221Z,10.10
2022-11-05T18:38:09.947Z,10.20
2022-11-05T18:40:43.225Z,10.10
2022-11-05T18:46:05.607Z,10.10
2022-11-05T18:51:20.241Z,10.00
2022-11-05T18:54:00.647Z,10.00
2022-11-05T18:56:40.255Z,10.00
2022-11-05T19:01:57.786Z,10.00
2022-11-05T19:04:28.038Z,9.90
2022-11-05T19:07:04.521Z,9.90
2022-11-05T19:12:21.372Z,9.80
2022-11-05T19:15:03.234Z,9.80
2022-11-05T19:17:46.500Z,9.80
2022-11-05T19:20:15.044Z,9.80
2022-11-05T19:22:45.805Z,9.70
2022-11-05T19:25:28.476Z,9.70
2022-11-05T19:28:02.919Z,9.70
2022-11-05T19:33:15.826Z,9.70
2022-11-05T19:35:46.820Z,9.70
2022-11-05T19:38:19.314Z,9.60
2022-11-05T19:40:48.833Z,9.60
2022-11-05T19:43:22.468Z,9.60
2022-11-05T19:45:54.271Z,9.60
2022-11-05T19:48:25.095Z,9.50
2022-11-05T19:51:05.878Z,9.50
2022-11-05T19:53:40.230Z,9.40
2022-11-05T19:56:18.080Z,9.40
2022-11-05T19:58:58.535Z,9.30
2022-11-05T20:01:42.519Z,9.30
2022-11-05T20:07:04.458Z,9.30
2022-11-05T20:09:36.953Z,9.30
2022-11-05T20:12:16.834Z,9.30
2022-11-05T20:14:48.826Z,9.20
2022-11-05T20:17:23.204Z,9.20
2022-11-05T20:19:52.373Z,9.20
2022-11-05T20:22:44.864Z,9.10
2022-11-05T20:25:18.000Z,9.00
2022-11-05T20:27:47.331Z,9.00
2022-11-05T20:30:20.051Z,9.00
2022-11-05T20:32:53.255Z,9.00
2022-11-05T20:35:30.730Z,9.00
2022-11-05T20:38:01.998Z,8.90
2022-11-05T20:40:32.755Z,8.90
2022-11-05T20:43:02.590Z,8.90
2022-11-05T20:45:35.750Z,8.90
2022-11-05T20:48:03.530Z,8.80
2022-11-05T20:50:59.457Z,8.80
2022-11-05T20:53:28.613Z,8.70
2022-11-05T20:56:07.613Z,8.70
2022-11-05T20:58:38.856Z,8.70
2022-11-05T21:01:20.126Z,8.60
2022-11-05T21:03:59.265Z,8.70
2022-11-05T21:06:28.428Z,8.60
2022-11-05T21:09:24.858Z,8.60
2022-11-05T21:12:14.050Z,8.60
2022-11-05T21:14:48.999Z,8.50
2022-11-05T21:17:24.524Z,8.50
2022-11-05T21:22:39.563Z,8.50
2022-11-05T21:25:17.718Z,8.50
2022-11-05T21:27:50.415Z,8.50
2022-11-05T21:30:23.431Z,8.40
2022-11-05T21:32:54.535Z,8.40
2022-11-05T21:35:32.399Z,8.40
2022-11-05T21:38:04.234Z,8.30
2022-11-05T21:40:41.455Z,8.40
2022-11-05T21:43:19.831Z,8.30
2022-11-05T21:45:49.288Z,8.30
2022-11-05T21:48:18.577Z,8.30
2022-11-05T21:51:19.529Z,8.30
2022-11-05T21:54:09.218Z,8.10
2022-11-05T21:57:03.481Z,8.20
2022-11-05T21:59:56.699Z,8.10
2022-11-05T22:02:29.664Z,8.10
2022-11-05T22:05:07.546Z,8.10
2022-11-05T22:07:41.620Z,8.00
2022-11-05T22:10:20.400Z,8.00
2022-11-05T22:15:32.033Z,8.00
2022-11-05T22:18:07.952Z,8.00
2022-11-05T22:20:40.768Z,7.90
2022-11-05T22:25:53.060Z,7.90
2022-11-05T22:28:23.037Z,7.90
2022-11-05T22:30:53.606Z,7.90
2022-11-05T22:33:21.960Z,7.80
2022-11-05T22:35:55.798Z,7.80
2022-11-05T22:41:28.103Z,7.80
2022-11-05T22:44:01.099Z,7.70
2022-11-05T22:46:41.997Z,7.70
2022-11-05T22:49:12.728Z,7.70
2022-11-05T22:51:49.987Z,7.70
2022-11-05T22:54:20.433Z,7.70
2022-11-05T22:56:50.719Z,7.60
2022-11-05T22:59:21.165Z,7.60
2022-11-05T23:01:58.584Z,7.60
2022-11-05T23:04:26.450Z,7.60
2022-11-05T23:07:16.270Z,7.60
2022-11-05T23:10:08.220Z,7.50
2022-11-05T23:12:39.692Z,7.50
2022-11-05T23:15:09.966Z,7.50
2022-11-05T23:17:59.299Z,7.40
2022-11-05T23:20:47.758Z,7.40
2022-11-05T23:23:36.657Z,7.40
2022-11-05T23:26:26.431Z,7.30
2022-11-05T23:28:56.173Z,7.30
2022-11-05T23:31:44.504Z,7.30
2022-11-05T23:34:15.071Z,7.20
2022-11-05T23:37:06.377Z,7.30
2022-11-05T23:39:42.621Z,7.30
2022-11-05T23:42:33.355Z,7.30
2022-11-05T23:45:21.993Z,7.30
2022-11-05T23:48:12.183Z,7.30
2022-11-05T23:50:42.909Z,7.20
2022-11-05T23:53:20.471Z,7.20
2022-11-05T23:55:48.372Z,7.20
2022-11-05T23:58:18.674Z,7.20
